Time;durP1;ratioP1;P1;durP2;ratioP2;P2;SDS_P1;SDS_P2;PMS_P1;PMS_P2;Temp;Humidity;BMP_temperature;BMP_pressure;BME280_temperature;BME280_humidity;BME280_pressure;Samples;Min_cycle;Max_cycle;Signal;HPM_P1;HPM_P2
2023/02/11 00:02:08;;;;;;;68.70;27.67;;;-2.50;99.90;;;;;;4403463;28;659411;-72
2023/02/11 00:04:56;;;;;;;77.60;28.60;;;-2.50;99.90;;;;;;4383025;28;658971;-72
2023/02/11 00:07:43;;;;;;;69.73;26.63;;;-2.50;99.90;;;;;;4406483;28;659380;-72
2023/02/11 00:10:30;;;;;;;70.93;27.23;;;-2.50;99.90;;;;;;4391797;28;658496;-72
2023/02/11 00:13:19;;;;;;;70.67;28.07;;;-2.40;99.90;;;;;;4406469;28;659380;-72
2023/02/11 00:16:07;;;;;;;78.53;29.38;;;-2.50;99.90;;;;;;4377813;28;658675;-72
2023/02/11 00:18:55;;;;;;;72.53;28.70;;;-2.50;99.90;;;;;;4399134;28;658803;-72
2023/02/11 00:21:43;;;;;;;75.20;29.50;;;-2.50;99.90;;;;;;4403129;28;659813;-72
2023/02/11 00:24:30;;;;;;;73.85;27.10;;;-2.50;99.90;;;;;;4384906;28;658709;-72
2023/02/11 00:27:17;;;;;;;79.37;28.80;;;-2.50;99.90;;;;;;4407886;28;659965;-72
2023/02/11 00:30:08;;;;;;;68.20;27.23;;;-2.60;99.90;;;;;;4402658;28;659091;-72
2023/02/11 00:32:55;;;;;;;66.97;23.80;;;-2.50;99.90;;;;;;4387150;28;658519;-72
2023/02/11 00:35:42;;;;;;;63.67;23.37;;;-2.40;99.90;;;;;;4413562;28;659944;-72
2023/02/11 00:38:30;;;;;;;62.87;25.03;;;-2.40;99.90;;;;;;4403575;28;659454;-71
2023/02/11 00:41:17;;;;;;;75.87;28.13;;;-2.40;99.90;;;;;;4412646;28;658862;-72
2023/02/11 00:44:05;;;;;;;73.97;28.73;;;-2.40;99.90;;;;;;4410099;28;658835;-72
2023/02/11 00:46:54;;;;;;;64.53;26.23;;;-2.50;99.90;;;;;;4415330;28;659520;-72
2023/02/11 00:49:41;;;;;;;58.33;22.53;;;-2.50;99.90;;;;;;4391336;28;658511;-72
2023/02/11 00:52:28;;;;;;;68.38;24.73;;;-2.50;99.90;;;;;;4404886;28;658654;-72
2023/02/11 00:55:16;;;;;;;81.57;30.87;;;-2.50;99.90;;;;;;4395520;28;659037;-72
2023/02/11 00:58:03;;;;;;;73.90;26.73;;;-2.50;99.90;;;;;;4406776;28;658775;-72
2023/02/11 01:00:51;;;;;;;81.17;29.90;;;-2.60;99.90;;;;;;4391652;28;659052;-72
2023/02/11 01:03:39;;;;;;;61.40;22.70;;;-2.50;99.90;;;;;;4415805;28;659336;-71
2023/02/11 01:06:26;;;;;;;76.53;29.57;;;-2.50;99.90;;;;;;4386509;28;658446;-71
2023/02/11 01:09:14;;;;;;;79.83;31.20;;;-2.60;99.90;;;;;;4408262;28;659724;-72
2023/02/11 01:12:01;;;;;;;78.23;28.43;;;-2.60;99.90;;;;;;4394059;28;660105;-71
2023/02/11 01:14:48;;;;;;;72.23;29.27;;;-2.70;99.90;;;;;;4408400;28;659544;-71
2023/02/11 01:17:36;;;;;;;71.03;27.83;;;-2.60;99.90;;;;;;4392267;28;659013;-72
2023/02/11 01:20:25;;;;;;;71.47;27.90;;;-2.60;99.90;;;;;;4414814;28;659050;-72
2023/02/11 01:23:12;;;;;;;72.07;26.90;;;-2.60;99.90;;;;;;4386289;28;659600;-72
2023/02/11 01:26:00;;;;;;;71.97;28.53;;;-2.60;99.90;;;;;;4399440;28;659324;-72
2023/02/11 01:28:47;;;;;;;71.83;27.13;;;-2.70;99.90;;;;;;4415709;28;659358;-72
2023/02/11 01:31:35;;;;;;;72.70;28.27;;;-2.70;99.90;;;;;;4404792;28;658811;-72
2023/02/11 01:34:23;;;;;;;74.73;29.47;;;-2.60;99.90;;;;;;4410628;28;659560;-72
2023/02/11 01:37:12;;;;;;;72.53;28.53;;;-2.60;99.90;;;;;;4402788;28;659224;-72
2023/02/11 01:39:59;;;;;;;75.90;27.13;;;-2.60;99.90;;;;;;4413029;28;658501;-72
2023/02/11 01:42:46;;;;;;;62.70;24.43;;;-2.50;99.90;;;;;;4384667;28;658185;-72
2023/02/11 01:45:56;;;;;;;60.63;25.30;;;-2.50;99.90;;;;;;4409572;28;659654;-72
2023/02/11 01:48:44;;;;;;;65.13;24.70;;;-2.40;99.90;;;;;;4389011;28;658937;-72
2023/02/11 01:51:33;;;;;;;77.73;28.03;;;-2.40;99.90;;;;;;4387441;28;659057;-72
2023/02/11 01:57:29;;;;;;;65.67;24.70;;;-2.40;99.90;;;;;;4350076;28;659350;-72
2023/02/11 02:00:19;;;;;;;72.40;29.00;;;-2.40;99.90;;;;;;4386193;28;658896;-71
2023/02/11 02:03:08;;;;;;;61.63;24.40;;;-2.40;99.90;;;;;;4383259;28;658723;-71
2023/02/11 02:05:57;;;;;;;64.17;26.30;;;-2.40;99.90;;;;;;4390353;28;659113;-72
2023/02/11 02:08:47;;;;;;;64.30;24.63;;;-2.40;99.90;;;;;;4406689;28;657892;-72
2023/02/11 02:11:35;;;;;;;65.00;24.63;;;-2.30;99.90;;;;;;4383546;28;658325;-72
2023/02/11 02:14:23;;;;;;;64.87;23.87;;;-2.30;99.90;;;;;;4388631;28;659563;-72
2023/02/11 02:17:11;;;;;;;59.83;21.57;;;-2.30;99.90;;;;;;4396064;28;658726;-72
2023/02/11 02:20:35;;;;;;;64.60;25.07;;;-2.20;99.90;;;;;;4406889;28;658477;-72
2023/02/11 02:23:29;;;;;;;58.70;22.80;;;-2.20;99.90;;;;;;4342953;28;658706;-72
2023/02/11 02:26:51;;;;;;;62.20;23.53;;;-2.20;99.90;;;;;;4379131;28;658880;-72
2023/02/11 02:30:15;;;;;;;58.77;22.33;;;-2.10;99.90;;;;;;4383440;28;659134;-71
2023/02/11 02:33:13;;;;;;;66.17;25.87;;;-2.10;99.90;;;;;;4347102;28;659857;-72
2023/02/11 02:36:13;;;;;;;61.97;23.30;;;-2.00;99.90;;;;;;4217392;28;659670;-72
2023/02/11 02:39:03;;;;;;;60.40;22.17;;;-2.10;99.90;;;;;;4228080;28;659232;-72
2023/02/11 02:41:51;;;;;;;63.77;23.17;;;-2.00;99.90;;;;;;4260291;28;659492;-72
2023/02/11 02:44:38;;;;;;;53.57;20.77;;;-2.00;99.90;;;;;;4410131;28;659128;-72
2023/02/11 02:47:25;;;;;;;59.40;23.85;;;-2.00;99.90;;;;;;4386360;28;658335;-72
2023/02/11 02:50:15;;;;;;;62.33;24.13;;;-2.00;99.90;;;;;;4404879;28;659667;-72
2023/02/11 02:53:12;;;;;;;61.70;25.27;;;-2.00;99.90;;;;;;4390922;28;659520;-72
2023/02/11 02:56:01;;;;;;;58.57;22.97;;;-2.00;99.90;;;;;;4407110;28;658536;-72
2023/02/11 02:58:58;;;;;;;60.57;24.53;;;-1.90;99.90;;;;;;4403883;28;659215;-72
2023/02/11 03:01:50;;;;;;;62.10;22.70;;;-1.90;99.90;;;;;;4366754;28;659017;-72
2023/02/11 03:04:40;;;;;;;72.80;24.40;;;-1.90;99.90;;;;;;4379166;28;658836;-72
2023/02/11 03:07:33;;;;;;;56.63;22.87;;;-1.90;99.90;;;;;;4380490;28;659418;-72
2023/02/11 03:10:23;;;;;;;52.77;21.23;;;-1.80;99.90;;;;;;4388983;28;658972;-72
2023/02/11 03:13:10;;;;;;;62.00;23.77;;;-1.80;99.90;;;;;;4394845;28;659095;-72
2023/02/11 03:15:57;;;;;;;55.63;20.97;;;-1.70;99.90;;;;;;4409231;28;659148;-72
2023/02/11 03:18:48;;;;;;;54.83;21.73;;;-1.70;99.90;;;;;;4409880;28;658245;-72
2023/02/11 03:21:35;;;;;;;56.60;22.90;;;-1.70;99.90;;;;;;4384118;28;658910;-72
2023/02/11 03:24:27;;;;;;;55.53;23.17;;;-1.80;99.90;;;;;;4408116;28;661228;-72
2023/02/11 03:27:18;;;;;;;57.13;23.83;;;-1.70;99.90;;;;;;4383637;28;658909;-72
2023/02/11 03:30:08;;;;;;;59.17;24.87;;;-1.70;99.90;;;;;;4371500;28;658652;-72
2023/02/11 03:32:58;;;;;;;61.80;24.13;;;-1.70;99.90;;;;;;4389864;28;658424;-72
2023/02/11 03:35:47;;;;;;;58.33;23.73;;;-1.60;99.90;;;;;;4400705;28;658891;-72
2023/02/11 03:38:36;;;;;;;56.22;24.42;;;-1.60;99.90;;;;;;4408159;28;658452;-72
2023/02/11 03:41:24;;;;;;;55.30;21.83;;;-1.50;99.90;;;;;;4378833;28;659206;-72
2023/02/11 03:44:12;;;;;;;59.27;22.77;;;-1.40;99.90;;;;;;4381571;28;659110;-71
2023/02/11 03:46:59;;;;;;;47.60;19.40;;;-1.40;99.90;;;;;;4408519;28;658347;-72
2023/02/11 03:49:47;;;;;;;30.52;12.05;;;-1.30;99.90;;;;;;4390565;28;658452;-72
2023/02/11 03:52:34;;;;;;;47.53;20.30;;;-1.30;99.90;;;;;;4411454;28;658281;-72
2023/02/11 03:55:21;;;;;;;53.00;20.97;;;-1.30;99.90;;;;;;4390081;28;658445;-72
2023/02/11 03:58:10;;;;;;;50.80;20.70;;;-1.30;99.90;;;;;;4408532;28;660331;-72
2023/02/11 04:00:57;;;;;;;57.53;19.40;;;-1.30;99.90;;;;;;4386251;28;658344;-72
2023/02/11 04:03:44;;;;;;;53.13;20.83;;;-1.30;99.90;;;;;;4403415;28;658180;-72
2023/02/11 04:06:32;;;;;;;50.07;20.87;;;-1.30;99.90;;;;;;4379603;28;659261;-72
2023/02/11 04:09:19;;;;;;;40.97;16.73;;;-1.30;99.90;;;;;;4403250;28;658707;-72
2023/02/11 04:12:07;;;;;;;42.63;17.97;;;-1.30;99.90;;;;;;4391450;28;658826;-72
2023/02/11 04:14:55;;;;;;;47.80;19.83;;;-1.40;99.90;;;;;;4406900;28;658338;-72
2023/02/11 04:17:43;;;;;;;49.47;20.80;;;-1.30;99.90;;;;;;4383026;28;659356;-71
2023/02/11 04:20:30;;;;;;;50.20;19.97;;;-1.40;99.90;;;;;;4387568;28;658799;-72
2023/02/11 04:23:17;;;;;;;49.07;19.90;;;-1.40;99.90;;;;;;4402046;28;659383;-69
2023/02/11 04:26:05;;;;;;;45.23;19.70;;;-1.40;99.90;;;;;;4399264;28;658516;-72
2023/02/11 04:28:53;;;;;;;44.13;17.53;;;-1.50;99.90;;;;;;4409953;28;659393;-72
2023/02/11 04:31:42;;;;;;;51.43;19.77;;;-1.50;99.90;;;;;;4403993;28;658667;-72
2023/02/11 04:34:29;;;;;;;48.93;19.20;;;-1.50;99.90;;;;;;4413037;28;658976;-73
2023/02/11 04:37:16;;;;;;;39.07;16.17;;;-1.60;99.90;;;;;;4378256;28;658949;-72
2023/02/11 04:40:04;;;;;;;39.23;15.37;;;-1.50;99.90;;;;;;4394290;28;658732;-69
2023/02/11 04:42:51;;;;;;;50.77;20.60;;;-1.60;99.90;;;;;;4389693;28;659733;-72
2023/02/11 04:45:38;;;;;;;55.03;22.00;;;-1.50;99.90;;;;;;4408471;28;659063;-72
2023/02/11 04:48:27;;;;;;;51.20;20.10;;;-1.60;99.90;;;;;;4392025;28;658713;-71
2023/02/11 04:51:14;;;;;;;57.00;20.37;;;-1.60;99.90;;;;;;4402792;28;658359;-72
2023/02/11 04:54:02;;;;;;;47.13;16.90;;;-1.60;99.90;;;;;;4384693;28;659064;-72
2023/02/11 04:56:49;;;;;;;45.60;19.00;;;-1.50;99.90;;;;;;4409723;28;658674;-72
2023/02/11 04:59:37;;;;;;;48.13;19.60;;;-1.50;99.90;;;;;;4387196;28;659669;-72
2023/02/11 05:02:24;;;;;;;37.93;16.20;;;-1.50;99.90;;;;;;4409174;28;658071;-72
2023/02/11 05:05:13;;;;;;;46.03;18.50;;;-1.50;99.90;;;;;;4386410;28;658685;-73
2023/02/11 05:08:00;;;;;;;48.57;19.17;;;-1.50;99.90;;;;;;4394208;28;659155;-72
2023/02/11 05:10:47;;;;;;;40.77;17.17;;;-1.50;99.90;;;;;;4409649;28;658845;-72
2023/02/11 05:13:35;;;;;;;47.53;17.80;;;-1.50;99.90;;;;;;4403235;28;659380;-72
2023/02/11 05:16:23;;;;;;;50.13;19.53;;;-1.40;99.90;;;;;;4402659;28;659970;-72
2023/02/11 05:19:10;;;;;;;41.80;17.20;;;-1.40;99.90;;;;;;4391212;28;658562;-72
2023/02/11 05:21:59;;;;;;;43.70;18.87;;;-1.30;99.90;;;;;;4412417;28;659434;-72
2023/02/11 05:24:46;;;;;;;42.17;18.23;;;-1.30;99.90;;;;;;4389344;28;658898;-71
2023/02/11 05:27:33;;;;;;;45.03;18.53;;;-1.30;99.90;;;;;;4411601;28;659484;-72
2023/02/11 05:30:21;;;;;;;46.07;18.83;;;-1.20;99.90;;;;;;4388607;28;658249;-72
2023/02/11 05:33:08;;;;;;;37.33;12.70;;;-1.20;99.90;;;;;;4408976;28;659727;-72
2023/02/11 05:35:58;;;;;;;46.40;17.23;;;-1.20;99.90;;;;;;4393795;28;658352;-72
2023/02/11 05:38:47;;;;;;;43.57;16.83;;;-1.20;99.90;;;;;;4386891;28;658618;-72
2023/02/11 05:41:34;;;;;;;38.87;16.73;;;-1.10;99.90;;;;;;4406592;28;658244;-72
2023/02/11 05:44:21;;;;;;;44.03;18.27;;;-1.10;99.90;;;;;;4383448;28;658567;-72
2023/02/11 05:47:09;;;;;;;38.70;15.93;;;-1.10;99.90;;;;;;4399786;28;658823;-72
2023/02/11 05:49:56;;;;;;;35.63;14.73;;;-1.10;99.90;;;;;;4388557;28;658610;-72
2023/02/11 05:52:43;;;;;;;39.67;17.50;;;-1.00;99.90;;;;;;4406399;28;659200;-72
2023/02/11 05:55:32;;;;;;;44.67;16.98;;;-1.00;99.90;;;;;;4382820;28;658976;-72
2023/02/11 05:58:19;;;;;;;36.17;14.50;;;-0.90;99.90;;;;;;4406152;28;658802;-71
2023/02/11 06:01:06;;;;;;;40.17;16.43;;;-0.90;99.90;;;;;;4385971;28;659172;-73
2023/02/11 06:03:53;;;;;;;35.37;14.17;;;-0.80;99.90;;;;;;4404325;28;659966;-72
2023/02/11 06:06:41;;;;;;;42.63;16.87;;;-0.90;99.90;;;;;;4384511;28;659569;-72
2023/02/11 06:09:28;;;;;;;31.00;13.40;;;-0.90;99.90;;;;;;4408485;28;658581;-71
2023/02/11 06:12:17;;;;;;;30.17;13.27;;;-0.80;99.90;;;;;;4396370;28;658395;-72
2023/02/11 06:15:04;;;;;;;34.73;14.00;;;-0.70;99.90;;;;;;4412787;28;658587;-71
2023/02/11 06:17:51;;;;;;;30.93;13.23;;;-0.80;99.90;;;;;;4377589;28;658953;-71
2023/02/11 06:20:40;;;;;;;33.50;14.63;;;-0.80;99.90;;;;;;4406529;28;658343;-71
2023/02/11 06:23:27;;;;;;;36.13;14.73;;;-0.70;99.90;;;;;;4379505;28;659287;-71
2023/02/11 06:26:17;;;;;;;22.37;9.63;;;-0.70;99.90;;;;;;4401410;28;659317;-72
2023/02/11 06:29:06;;;;;;;39.30;15.90;;;-0.70;99.90;;;;;;4410266;28;657532;-71
2023/02/11 06:31:53;;;;;;;28.63;12.83;;;-0.60;99.90;;;;;;4383243;28;660064;-70
2023/02/11 06:34:40;;;;;;;31.47;13.20;;;-0.60;99.90;;;;;;4335455;28;658142;-72
2023/02/11 06:37:27;;;;;;;28.20;12.43;;;-0.60;99.90;;;;;;4401971;28;659607;-72
2023/02/11 06:40:15;;;;;;;27.10;13.03;;;-0.40;99.90;;;;;;4401766;28;658176;-72
2023/02/11 06:43:02;;;;;;;24.23;10.20;;;-0.40;99.90;;;;;;4410073;28;660340;-72
2023/02/11 06:45:54;;;;;;;35.47;14.77;;;-0.40;99.90;;;;;;4408806;28;658374;-74
2023/02/11 06:48:41;;;;;;;28.20;11.73;;;-0.40;99.90;;;;;;4380819;28;658627;-72
2023/02/11 06:51:29;;;;;;;32.27;13.80;;;-0.40;99.90;;;;;;4397267;28;659744;-73
2023/02/11 06:54:16;;;;;;;30.80;13.97;;;-0.30;99.90;;;;;;4388233;28;659286;-71
2023/02/11 06:57:03;;;;;;;33.40;13.90;;;-0.30;99.90;;;;;;4411312;28;659375;-71
2023/02/11 06:59:50;;;;;;;37.63;15.95;;;-0.30;99.90;;;;;;4386184;28;658930;-71
2023/02/11 07:02:39;;;;;;;34.50;14.03;;;-0.40;99.90;;;;;;4404238;28;659839;-70
2023/02/11 07:05:26;;;;;;;30.02;12.18;;;-0.40;99.90;;;;;;4387611;28;658635;-71
2023/02/11 07:08:13;;;;;;;39.43;16.27;;;-0.40;99.90;;;;;;4404167;28;659013;-73
2023/02/11 07:11:01;;;;;;;33.30;14.27;;;-0.30;99.90;;;;;;4389520;28;658738;-71
2023/02/11 07:13:48;;;;;;;33.07;12.73;;;-0.30;99.90;;;;;;4409367;28;659277;-69
2023/02/11 07:16:35;;;;;;;27.10;11.23;;;-0.30;99.90;;;;;;4390383;28;658439;-72
2023/02/11 07:19:24;;;;;;;28.70;12.10;;;-0.20;99.90;;;;;;4420420;28;659390;-72
2023/02/11 07:22:11;;;;;;;31.13;13.13;;;-0.10;99.90;;;;;;4397059;28;658479;-71
2023/02/11 07:24:58;;;;;;;31.83;12.93;;;-0.10;99.90;;;;;;4409506;28;659768;-71
2023/02/11 07:27:46;;;;;;;35.60;15.67;;;-0.20;99.90;;;;;;4386664;28;658698;-71
2023/02/11 07:30:33;;;;;;;32.57;12.93;;;-0.20;99.90;;;;;;4412567;28;659180;-71
2023/02/11 07:33:20;;;;;;;36.30;15.07;;;-0.30;99.90;;;;;;4394893;28;658933;-72
2023/02/11 07:36:10;;;;;;;33.23;14.37;;;-0.20;99.90;;;;;;4405347;28;659409;-70
2023/02/11 07:38:58;;;;;;;34.87;15.00;;;-0.10;99.90;;;;;;4386568;28;659574;-70
2023/02/11 07:41:47;;;;;;;31.27;13.10;;;-0.20;99.90;;;;;;4386042;28;659522;-72
2023/02/11 07:44:35;;;;;;;27.10;11.03;;;-0.20;99.90;;;;;;4412974;28;659041;-72
2023/02/11 07:47:23;;;;;;;34.03;13.33;;;-0.10;99.90;;;;;;4386114;28;658817;-72
2023/02/11 07:50:10;;;;;;;23.67;10.70;;;-0.10;99.90;;;;;;4395082;28;658617;-73
2023/02/11 07:52:59;;;;;;;32.27;11.00;;;-0.10;99.90;;;;;;4400591;28;659488;-69
2023/02/11 07:55:46;;;;;;;29.70;13.30;;;-0.10;99.90;;;;;;4371029;28;658987;-70
2023/02/11 07:58:34;;;;;;;38.13;15.93;;;0.00;99.90;;;;;;4397503;28;659355;-70
2023/02/11 08:01:23;;;;;;;27.57;10.77;;;0.10;99.90;;;;;;4395621;28;657743;-69
2023/02/11 08:04:11;;;;;;;28.67;12.77;;;0.20;99.90;;;;;;4389128;28;657479;-72
2023/02/11 08:06:58;;;;;;;32.00;12.57;;;0.30;99.90;;;;;;4401780;28;657773;-73
2023/02/11 08:09:47;;;;;;;28.57;10.83;;;0.40;99.90;;;;;;4381943;28;657395;-70
2023/02/11 08:12:34;;;;;;;42.10;16.70;;;0.40;99.90;;;;;;4406401;28;657533;-70
2023/02/11 08:15:21;;;;;;;31.20;14.47;;;0.60;99.90;;;;;;4388409;28;657621;-70
2023/02/11 08:18:08;;;;;;;33.58;15.13;;;0.60;99.90;;;;;;4404671;28;658828;-69
2023/02/11 08:20:55;;;;;;;28.53;12.83;;;0.70;99.90;;;;;;4385278;28;658011;-72
2023/02/11 08:23:43;;;;;;;41.27;16.57;;;0.90;99.90;;;;;;4406888;28;658385;-69
2023/02/11 08:26:33;;;;;;;36.70;15.17;;;1.00;99.90;;;;;;4390134;28;657749;-71
2023/02/11 08:29:20;;;;;;;34.53;14.68;;;1.00;99.90;;;;;;4389947;28;658520;-72
2023/02/11 08:32:08;;;;;;;34.93;14.37;;;1.10;99.90;;;;;;4413662;28;658691;-73
2023/02/11 08:34:55;;;;;;;27.83;12.90;;;1.30;99.90;;;;;;4369568;28;657102;-73
2023/02/11 08:37:42;;;;;;;30.27;13.70;;;1.40;99.90;;;;;;4386375;28;657484;-71
2023/02/11 08:40:30;;;;;;;38.53;14.67;;;1.50;99.90;;;;;;4383585;28;657775;-71
2023/02/11 08:43:19;;;;;;;32.30;13.13;;;1.70;99.90;;;;;;4386677;28;658162;-71
2023/02/11 08:46:06;;;;;;;26.77;11.60;;;2.00;99.90;;;;;;4364908;28;657185;-72
2023/02/11 08:48:53;;;;;;;35.28;14.07;;;2.30;99.90;;;;;;4391709;28;658939;-72
2023/02/11 08:51:41;;;;;;;39.97;15.50;;;2.20;99.90;;;;;;4367440;28;657462;-70
2023/02/11 08:54:28;;;;;;;28.30;11.93;;;2.10;99.90;;;;;;4390163;28;657048;-70
2023/02/11 08:57:15;;;;;;;35.00;15.77;;;2.00;99.90;;;;;;4363284;28;657663;-70
2023/02/11 09:00:05;;;;;;;39.60;16.07;;;1.80;99.90;;;;;;4393183;28;657799;-71
2023/02/11 09:02:52;;;;;;;43.97;17.40;;;1.80;99.90;;;;;;4375233;28;658490;-71
2023/02/11 09:05:42;;;;;;;45.40;18.57;;;2.00;99.90;;;;;;4384384;28;657638;-70
2023/02/11 09:08:30;;;;;;;32.53;13.47;;;1.80;99.90;;;;;;4381619;28;657524;-71
2023/02/11 09:11:18;;;;;;;48.97;17.47;;;1.90;99.90;;;;;;4389804;28;658110;-70
2023/02/11 09:14:05;;;;;;;33.63;12.80;;;2.00;99.90;;;;;;4377126;28;657772;-71
2023/02/11 09:16:54;;;;;;;32.50;13.73;;;2.10;99.90;;;;;;4388992;28;658691;-70
2023/02/11 09:19:41;;;;;;;38.77;15.13;;;2.00;99.90;;;;;;4370850;28;657754;-71
2023/02/11 09:22:28;;;;;;;41.67;17.47;;;2.00;99.90;;;;;;4388524;28;657858;-71
2023/02/11 09:25:16;;;;;;;34.23;13.70;;;2.20;99.90;;;;;;4373506;28;657785;-71
2023/02/11 09:28:03;;;;;;;31.87;13.03;;;2.20;99.90;;;;;;4385548;28;657870;-70
2023/02/11 09:30:50;;;;;;;37.97;16.20;;;2.00;99.90;;;;;;4371305;28;657431;-71
2023/02/11 09:33:40;;;;;;;40.77;17.20;;;2.20;99.90;;;;;;4397475;28;659180;-70
2023/02/11 09:36:29;;;;;;;38.17;17.20;;;2.50;99.90;;;;;;4387613;28;657468;-72
2023/02/11 09:39:17;;;;;;;39.07;15.63;;;2.10;99.90;;;;;;4386298;28;657429;-70
2023/02/11 09:42:29;;;;;;;40.90;17.40;;;2.10;99.90;;;;;;4412517;28;657529;-70
2023/02/11 09:45:19;;;;;;;42.17;15.70;;;2.10;99.90;;;;;;4386566;28;657785;-69
2023/02/11 09:48:10;;;;;;;38.70;16.07;;;2.10;99.90;;;;;;4391792;28;657589;-69
2023/02/11 09:51:00;;;;;;;28.90;12.50;;;2.20;99.90;;;;;;4387238;28;658148;-69
2023/02/11 09:53:47;;;;;;;35.47;13.27;;;2.30;99.90;;;;;;4388953;28;658724;-69
2023/02/11 09:56:34;;;;;;;38.63;16.93;;;2.20;99.90;;;;;;4412530;28;657227;-69
2023/02/11 09:59:21;;;;;;;38.10;14.27;;;2.30;99.90;;;;;;4385861;28;658432;-69
2023/02/11 10:02:13;;;;;;;32.33;14.23;;;2.20;99.90;;;;;;4401902;28;657762;-69
2023/02/11 10:05:21;;;;;;;36.38;14.80;;;2.20;99.90;;;;;;4392190;28;657740;-69
2023/02/11 10:08:13;;;;;;;37.97;16.97;;;2.20;99.90;;;;;;4387388;28;658472;-71
2023/02/11 10:11:02;;;;;;;41.23;17.87;;;2.20;99.90;;;;;;4372496;28;657343;-70
2023/02/11 10:13:54;;;;;;;37.50;16.90;;;2.20;99.90;;;;;;4405979;28;658006;-70
2023/02/11 10:16:50;;;;;;;43.43;19.00;;;2.40;99.90;;;;;;4392218;28;657972;-70
2023/02/11 10:19:44;;;;;;;47.47;19.37;;;2.50;99.90;;;;;;4368949;28;658184;-70
2023/02/11 10:22:34;;;;;;;46.93;19.97;;;2.90;99.90;;;;;;4391669;28;657937;-71
2023/02/11 10:25:24;;;;;;;43.97;19.97;;;3.30;99.90;;;;;;4387773;28;657642;-68
2023/02/11 10:28:13;;;;;;;36.03;15.43;;;3.10;99.90;;;;;;4385236;28;658344;-67
2023/02/11 10:31:01;;;;;;;42.97;19.20;;;3.20;99.90;;;;;;4404727;28;657656;-69
2023/02/11 10:33:51;;;;;;;46.23;19.73;;;3.10;99.90;;;;;;4407254;28;658211;-70
2023/02/11 10:36:39;;;;;;;39.67;17.90;;;3.30;99.90;;;;;;4386884;28;658037;-71
2023/02/11 10:39:27;;;;;;;41.10;18.30;;;3.40;99.90;;;;;;4391555;28;657797;-71
2023/02/11 10:42:15;;;;;;;44.93;19.97;;;3.60;99.90;;;;;;4409296;28;657701;-70
2023/02/11 10:45:05;;;;;;;42.47;17.07;;;3.70;99.90;;;;;;4386254;28;658449;-71
2023/02/11 10:47:54;;;;;;;36.30;16.03;;;3.80;99.90;;;;;;4385167;28;658645;-71
2023/02/11 10:50:41;;;;;;;37.07;15.00;;;3.60;99.90;;;;;;4385210;28;657468;-71
2023/02/11 10:53:28;;;;;;;44.67;18.90;;;3.40;99.90;;;;;;4409245;28;657665;-70
2023/02/11 10:56:22;;;;;;;40.17;18.48;;;3.50;99.90;;;;;;4391610;28;657852;-71
2023/02/11 10:59:15;;;;;;;38.60;17.57;;;3.50;99.90;;;;;;4390771;28;657540;-71
2023/02/11 11:02:04;;;;;;;37.00;13.83;;;3.70;99.90;;;;;;4365579;28;657904;-72
2023/02/11 11:04:55;;;;;;;35.90;15.37;;;3.60;99.90;;;;;;4389280;28;658031;-70
2023/02/11 11:07:51;;;;;;;47.43;18.97;;;3.30;99.90;;;;;;4388290;28;658752;-72
2023/02/11 11:10:42;;;;;;;36.37;15.33;;;3.30;99.90;;;;;;4385348;28;658862;-70
2023/02/11 11:13:31;;;;;;;42.90;18.80;;;3.50;99.90;;;;;;4383148;28;657500;-71
2023/02/11 11:16:22;;;;;;;38.90;17.43;;;4.10;99.90;;;;;;4379304;28;658616;-72
2023/02/11 11:19:15;;;;;;;32.63;15.07;;;4.10;99.90;;;;;;4381855;28;657151;-69
2023/02/11 11:22:04;;;;;;;26.47;11.87;;;4.00;99.90;;;;;;4377928;28;657950;-68
2023/02/11 11:24:53;;;;;;;30.63;13.52;;;3.90;99.90;;;;;;4387115;28;657817;-71
2023/02/11 11:27:40;;;;;;;43.63;17.37;;;3.50;99.90;;;;;;4382562;28;657906;-72
2023/02/11 11:30:31;;;;;;;26.63;12.37;;;3.40;99.90;;;;;;4406719;28;658422;-72
2023/02/11 11:33:22;;;;;;;40.53;14.53;;;3.40;99.90;;;;;;4377158;28;657601;-71
2023/02/11 11:36:10;;;;;;;42.05;18.23;;;3.10;99.90;;;;;;4369238;28;658565;-71
2023/02/11 11:38:58;;;;;;;34.93;14.27;;;2.90;99.90;;;;;;4379915;28;657998;-73
2023/02/11 11:41:56;;;;;;;50.07;19.93;;;2.70;99.90;;;;;;4380300;28;657449;-73
2023/02/11 11:44:43;;;;;;;37.75;16.58;;;2.70;99.90;;;;;;4371174;28;657526;-72
2023/02/11 11:47:36;;;;;;;37.70;16.90;;;2.70;99.90;;;;;;4381275;28;657807;-71
2023/02/11 11:50:27;;;;;;;40.37;17.17;;;2.70;99.90;;;;;;4380507;28;658010;-68
2023/02/11 11:53:16;;;;;;;37.00;16.13;;;2.80;99.90;;;;;;4379698;28;657754;-68
2023/02/11 11:56:06;;;;;;;47.63;18.27;;;2.90;99.90;;;;;;4381656;28;658963;-68
2023/02/11 11:58:53;;;;;;;34.53;14.63;;;2.80;99.90;;;;;;4377341;28;657779;-69
2023/02/11 12:01:45;;;;;;;43.93;19.73;;;2.70;99.90;;;;;;4379349;28;657561;-71
2023/02/11 12:04:44;;;;;;;33.58;11.93;;;2.70;99.90;;;;;;4383675;28;658460;-70
2023/02/11 12:07:43;;;;;;;32.23;14.57;;;2.50;99.90;;;;;;4383386;28;658427;-71
2023/02/11 12:10:51;;;;;;;37.47;16.60;;;2.50;99.90;;;;;;4360523;28;657778;-71
2023/02/11 12:13:44;;;;;;;46.27;19.77;;;2.50;99.90;;;;;;4382237;28;658249;-71
2023/02/11 12:16:36;;;;;;;43.70;19.03;;;2.60;99.90;;;;;;4375633;28;657492;-72
2023/02/11 12:19:41;;;;;;;37.67;17.63;;;2.70;99.90;;;;;;4379197;28;658400;-71
2023/02/11 12:22:39;;;;;;;44.63;19.27;;;2.50;99.90;;;;;;4378438;28;658759;-73
2023/02/11 12:25:27;;;;;;;36.20;15.47;;;2.60;99.90;;;;;;4362812;28;657790;-73
2023/02/11 12:28:21;;;;;;;45.67;20.60;;;2.60;99.90;;;;;;4407322;28;657139;-70
2023/02/11 12:31:18;;;;;;;33.63;14.97;;;2.60;99.90;;;;;;4371152;28;657678;-73
2023/02/11 12:34:18;;;;;;;44.17;17.97;;;2.60;99.90;;;;;;4359118;28;658299;-72
2023/02/11 12:37:10;;;;;;;29.63;13.30;;;2.70;99.90;;;;;;4382958;28;657635;-72
2023/02/11 12:40:03;;;;;;;32.47;14.93;;;2.60;99.90;;;;;;4380460;28;657627;-69
2023/02/11 12:46:17;;;;;;;33.37;14.97;;;2.20;99.90;;;;;;4381885;28;658424;-72
2023/02/11 12:49:27;;;;;;;38.23;16.83;;;2.20;99.90;;;;;;4395963;28;657401;-72
2023/02/11 12:52:24;;;;;;;41.73;19.33;;;2.10;99.90;;;;;;4351658;28;658351;-71
2023/02/11 12:55:18;;;;;;;42.33;19.50;;;2.10;99.90;;;;;;4386796;28;657928;-70
2023/02/11 12:58:06;;;;;;;53.90;22.27;;;2.00;99.90;;;;;;4370431;28;657455;-70
2023/02/11 13:00:55;;;;;;;48.47;19.40;;;1.90;99.90;;;;;;4398157;28;657705;-71
2023/02/11 13:03:44;;;;;;;39.97;13.30;;;2.00;99.90;;;;;;4380334;28;660287;-72
2023/02/11 13:06:34;;;;;;;51.13;18.00;;;2.00;99.90;;;;;;4382366;28;657537;-69
2023/02/11 13:09:24;;;;;;;43.13;18.73;;;2.00;99.90;;;;;;4382623;28;657525;-71
2023/02/11 13:15:17;;;;;;;35.60;15.30;;;2.10;99.90;;;;;;4357342;28;657687;-71
2023/02/11 13:18:10;;;;;;;35.43;15.73;;;2.10;99.90;;;;;;4408183;28;657812;-71
2023/02/11 13:21:00;;;;;;;54.73;21.67;;;2.00;99.90;;;;;;4378653;28;658078;-70
2023/02/11 13:23:50;;;;;;;51.60;21.73;;;2.00;99.90;;;;;;4384295;28;658044;-70
2023/02/11 13:26:41;;;;;;;41.57;16.83;;;1.90;99.90;;;;;;4383312;28;658621;-72
2023/02/11 13:29:34;;;;;;;46.83;20.63;;;2.00;99.90;;;;;;4383985;28;657681;-71
2023/02/11 13:32:21;;;;;;;46.23;16.53;;;2.00;99.90;;;;;;4378188;28;657955;-72
2023/02/11 13:35:27;;;;;;;40.85;17.55;;;2.00;99.90;;;;;;4405791;28;658788;-71
2023/02/11 13:38:18;;;;;;;43.13;19.57;;;2.00;99.90;;;;;;4376658;28;657946;-70
2023/02/11 13:41:06;;;;;;;41.57;17.00;;;2.00;99.90;;;;;;4351099;28;657909;-72
2023/02/11 13:44:01;;;;;;;49.57;20.83;;;2.10;99.90;;;;;;4410835;28;657443;-70
2023/02/11 13:46:55;;;;;;;40.90;18.27;;;2.00;99.90;;;;;;4380855;28;658349;-72
2023/02/11 13:49:43;;;;;;;48.53;19.90;;;2.00;99.90;;;;;;4361702;28;657360;-71
2023/02/11 13:52:31;;;;;;;35.73;15.17;;;2.00;99.90;;;;;;4396524;28;657965;-73
2023/02/11 13:55:21;;;;;;;45.40;15.90;;;2.00;99.90;;;;;;4402041;28;660572;-72
2023/02/11 13:58:19;;;;;;;56.77;23.07;;;1.80;99.90;;;;;;4384195;28;658192;-71
2023/02/11 14:01:07;;;;;;;55.07;23.67;;;1.80;99.90;;;;;;4382527;28;658203;-71
2023/02/11 14:10:50;;;;;;;48.17;19.97;;;1.90;99.90;;;;;;4360481;28;658268;-72
2023/02/11 14:13:37;;;;;;;56.00;23.73;;;1.90;99.90;;;;;;4352687;28;658303;-70
2023/02/11 14:16:24;;;;;;;53.33;23.48;;;1.90;99.90;;;;;;4397763;28;657377;-71
2023/02/11 14:19:13;;;;;;;42.50;18.87;;;1.90;99.90;;;;;;4379173;28;658315;-72
2023/02/11 14:22:02;;;;;;;41.07;19.13;;;1.90;99.90;;;;;;4384508;28;657254;-71
2023/02/11 14:24:54;;;;;;;44.33;21.07;;;1.90;99.90;;;;;;4402032;28;657644;-70
2023/02/11 14:27:42;;;;;;;48.90;21.67;;;1.90;99.90;;;;;;4361088;28;657709;-72
2023/02/11 14:30:41;;;;;;;53.70;24.00;;;1.90;99.90;;;;;;4401379;28;657606;-70